• Join FlightAware (Why Join?)
  • Login
  • US Flag 
12:23AM EDT


 

Airport Tracker/Info


-or-


 

Live Flight TrackerFlight Track Log ✈ GPD95 ✈ 15-Jul-2013 ✈ KFMH - KTEB

Flight Track Log - Related Links

Times and Time Zones

All times are in EDT time to prevent confusion due to time zone crossing. See the GPD95 flight status page for this flight to view local times or setup timezone preferences in your user account.

Time Position Orientation Groundspeed Altitude Reporting Facility
EDT Latitude Longitude Course Direction KTS MPH feet Rate Location/Type
06:14AM 41.3311 -70.8919 259° West 126 145 3,800  Level Boston Center
06:15AM 41.3233 -70.9447 259° West 138 159 4,200 360 Climbing Boston Center
06:17AM 41.3158 -71.0031 260° West 144 166 4,600 240 Climbing Boston Center
06:18AM 41.3083 -71.0556 259° West 148 170 4,800 60 Climbing Boston Center
06:19AM 41.3006 -71.1111 259° West 156 180 4,800 120 Level Boston Center
06:20AM 41.2950 -71.1692 263° West 154 177 5,100 240 Climbing Boston Center
06:21AM 41.2872 -71.2247 259° West 149 171 5,300 240 Climbing Boston Center
06:22AM 41.2814 -71.2772 262° West 147 169 5,600 240 Climbing Boston Center
06:23AM 41.2633 -71.3300 246° West 150 173 5,900 240 Climbing Boston Center
06:24AM 41.2553 -71.3769 257° West 147 169 6,100 240 Climbing Boston Center
06:25AM 41.2475 -71.4353 260° West 143 165 6,500 180 Climbing Boston Center
06:26AM 41.2419 -71.4906 262° West 147 169 6,500  Level Boston Center
06:27AM 41.2339 -71.5458 259° West 151 174 6,500  Level Boston Center
06:29AM 41.2234 -71.6198 259° West  Level Estimated
06:36AM 41.1824 -71.9070 259° West  Level Estimated
06:37AM 41.1765 -71.9480 259° West  Level Estimated
06:38AM 41.1706 -71.9890 259° West  Level Estimated
06:39AM 41.1646 -72.0300 259° West  Level Estimated
06:40AM 41.1586 -72.0710 259° West  Level Estimated
06:41AM 41.1526 -72.1119 259° West  Level Estimated
06:42AM 41.1520 -72.1541 269° West  Level FlightAware Approximate
06:43AM 41.1512 -72.1962 269° West  Level FlightAware Approximate
06:44AM 41.1505 -72.2383 269° West  Level FlightAware Approximate
06:45AM 41.1441 -72.2796 239° Southwest  Level Estimated
06:46AM 41.1278 -72.3158 239° Southwest  Level FlightAware Approximate
06:47AM 41.1116 -72.3520 239° Southwest  Level FlightAware Approximate
06:48AM 41.0953 -72.3882 239° Southwest  Level FlightAware Approximate
06:49AM 41.0791 -72.4244 239° Southwest  Level FlightAware Approximate
06:50AM 41.0628 -72.4605 239° Southwest  Level FlightAware Approximate
06:51AM 41.0465 -72.4967 239° Southwest  Level FlightAware Approximate
06:52AM 41.0302 -72.5328 239° Southwest  Level FlightAware Approximate
06:53AM 41.0139 -72.5689 239° Southwest  Level FlightAware Approximate
06:54AM 40.9976 -72.6049 239° Southwest  Level FlightAware Approximate
06:55AM 40.9813 -72.6410 239° Southwest  Level FlightAware Approximate
06:56AM 40.9650 -72.6770 239° Southwest  Level FlightAware Approximate
06:57AM 40.9486 -72.7131 239° Southwest  Level FlightAware Approximate
06:58AM 40.9323 -72.7491 239° Southwest  Level FlightAware Approximate
06:59AM 40.9299 -72.7910 266° West  Level Estimated
07:00AM 40.9269 -72.8328 265° West  Level FlightAware Approximate
07:01AM 40.9238 -72.8746 265° West  Level FlightAware Approximate
07:02AM 40.9208 -72.9164 265° West  Level FlightAware Approximate
07:03AM 40.9178 -72.9582 265° West  Level FlightAware Approximate
07:04AM 40.9147 -73.0000 264° West  Level FlightAware Approximate
07:05AM 40.9116 -73.0418 264° West  Level FlightAware Approximate
07:06AM 40.9085 -73.0836 264° West  Level FlightAware Approximate
07:07AM 40.9054 -73.1254 264° West  Level FlightAware Approximate
07:08AM 40.9023 -73.1672 264° West  Level FlightAware Approximate
07:09AM 40.8992 -73.2090 264° West  Level FlightAware Approximate
07:10AM 40.8960 -73.2508 264° West  Level FlightAware Approximate
07:11AM 40.8928 -73.2925 264° West  Level FlightAware Approximate
07:12AM 40.8897 -73.3343 264° West  Level FlightAware Approximate
07:13AM 40.8865 -73.3761 264° West  Level FlightAware Approximate
07:14AM 40.8843 -73.4180 270° West  Level Estimated
07:15AM 40.8838 -73.4599 269° West  Level FlightAware Approximate
07:16AM 40.8816 -73.5018 270° West  Level Estimated
07:17AM 40.8744 -73.5524 252° West  Level FlightAware Approximate
07:18AM 40.8667 -73.5928 270° West  Level FlightAware Approximate
07:19AM 40.8667 -73.6347 270° West  Level FlightAware Approximate
07:20AM 40.8667 -73.6767 270° West  Level FlightAware Approximate
07:21AM 40.8664 -73.7186 259° West  Level FlightAware Approximate
07:22AM 40.8605 -73.7599 259° West  Level FlightAware Approximate
07:23AM 40.8546 -73.8011 259° West  Level FlightAware Approximate
07:24AM 40.8500 -73.8425 270° West  Level FlightAware Approximate
07:25AM 40.8500 -73.8845 270° West  Level FlightAware Approximate
07:26AM 40.8500 -73.9264 270° West  Level FlightAware Approximate
07:27AM 40.8500 -73.9684 270° West  Level FlightAware Approximate
07:28AM 40.8500 -74.0103 270° West  Level FlightAware Approximate
07:29AM 40.8500 -74.0500 270° West  Level FlightAware Approximate
07:30AM 40.8501 -74.0608 270° West  Level Estimated
07:31AM 40.8501 -74.0608 270° West  Level Estimated
07:32AM 40.8501 -74.0608 270° West  Level Estimated
07:33AM 40.8501 -74.0608 270° West  Level Estimated
07:34AM 40.8501 -74.0608 270° West  Level Estimated
07:35AM 40.8501 -74.0608 270° West  Level Estimated
07:36AM 40.8501 -74.0608 270° West  Level Estimated
07:37AM 40.8501 -74.0608 270° West  Level Estimated
07:38AM 40.8501 -74.0608 270° West  Level Estimated
07:39AM 40.8501 -74.0608 270° West  Level Estimated
07:40AM 40.8501 -74.0608 270° West  Level Estimated
07:41AM 40.8501 -74.0608 270° West  Level Estimated
07:42AM 40.8501 -74.0608 270° West  Level Estimated
07:43AM 40.8501 -74.0608 270° West  Level Estimated
07:44AM 40.8501 -74.0608 270° West  Level Estimated
07:45AM 40.8501 -74.0608 270° West  Level Estimated
07:46AM 40.8501 -74.0608 270° West  Level Estimated
07:47AM 40.8501 -74.0608 270° West  Level Estimated